createdAt,value
2023-04-17T00:01:42.657Z,103033.59
2023-04-17T00:04:11.601Z,103031.00
2023-04-17T00:06:40.167Z,103026.72
2023-04-17T00:09:08.090Z,103031.00
2023-04-17T00:11:36.033Z,103037.03
2023-04-17T00:14:03.878Z,103027.56
2023-04-17T00:16:31.853Z,103034.44
2023-04-17T00:19:01.154Z,103042.16
2023-04-17T00:21:29.999Z,103046.41
2023-04-17T00:23:58.231Z,103039.53
2023-04-17T00:26:26.248Z,103047.25
2023-04-17T00:28:54.272Z,103041.19
2023-04-17T00:31:22.298Z,103048.94
2023-04-17T00:33:50.437Z,103049.78
2023-04-17T00:36:19.712Z,103054.09
2023-04-17T00:38:47.641Z,103054.06
2023-04-17T00:41:15.744Z,103051.50
2023-04-17T00:43:43.732Z,103051.47
2023-04-17T00:46:13.135Z,103060.88
2023-04-17T00:48:41.601Z,103066.91
2023-04-17T00:51:09.599Z,103066.00
2023-04-17T00:53:39.188Z,103063.41
2023-04-17T00:56:08.252Z,103056.50
2023-04-17T00:58:38.347Z,103059.09
2023-04-17T01:01:06.345Z,103064.22
2023-04-17T01:03:34.893Z,103061.63
2023-04-17T01:06:03.660Z,103066.81
2023-04-17T01:08:42.409Z,103060.81
2023-04-17T01:11:10.747Z,103060.78
2023-04-17T01:13:46.368Z,103058.16
2023-04-17T01:16:14.385Z,103063.31
2023-04-17T01:18:42.370Z,103070.16
2023-04-17T01:21:10.413Z,103063.25
2023-04-17T01:23:47.003Z,103062.41
2023-04-17T01:26:20.428Z,103064.13
2023-04-17T01:28:53.060Z,103065.84
2023-04-17T01:31:21.408Z,103069.28
2023-04-17T01:33:49.594Z,103066.69
2023-04-17T01:36:17.844Z,103078.69
2023-04-17T01:38:46.173Z,103078.63
2023-04-17T01:41:14.063Z,103081.13
2023-04-17T01:43:44.973Z,103077.69
2023-04-17T01:46:13.256Z,103075.13
2023-04-17T01:48:41.753Z,103078.59
2023-04-17T01:51:09.717Z,103078.56
2023-04-17T01:53:39.104Z,103074.34
2023-04-17T01:58:19.673Z,103082.06
2023-04-17T02:00:47.613Z,103082.00
2023-04-17T02:03:15.955Z,103077.69
2023-04-17T02:05:47.163Z,103076.84
2023-04-17T02:08:15.258Z,103076.84
2023-04-17T02:10:43.314Z,103077.72
2023-04-17T02:13:11.889Z,103078.56
2023-04-17T02:15:41.397Z,103083.72
2023-04-17T02:18:10.038Z,103080.31
2023-04-17T02:20:39.063Z,103089.69
2023-04-17T02:23:07.861Z,103087.06
2023-04-17T02:25:36.230Z,103090.53
2023-04-17T02:28:04.135Z,103093.09
2023-04-17T02:30:32.054Z,103094.72
2023-04-17T02:33:02.028Z,103092.97
2023-04-17T02:35:34.104Z,103103.31
2023-04-17T02:38:02.089Z,103105.88
2023-04-17T02:40:30.081Z,103107.63
2023-04-17T02:42:57.928Z,103109.31
2023-04-17T02:45:25.830Z,103111.91
2023-04-17T02:47:53.817Z,103111.84
2023-04-17T02:50:23.301Z,103116.19
2023-04-17T02:52:51.221Z,103111.81
2023-04-17T02:55:19.360Z,103117.03
2023-04-17T02:57:47.285Z,103115.34
2023-04-17T03:00:15.668Z,103120.47
2023-04-17T03:02:43.739Z,103123.84
2023-04-17T03:05:15.345Z,103116.19
2023-04-17T03:07:44.670Z,103122.97
2023-04-17T03:10:13.500Z,103124.69
2023-04-17T03:12:43.948Z,103131.59
2023-04-17T03:15:12.536Z,103131.59
2023-04-17T03:17:40.552Z,103136.75
2023-04-17T03:20:10.048Z,103130.72
2023-04-17T03:22:37.983Z,103127.28
2023-04-17T03:25:08.287Z,103141.09
2023-04-17T03:27:36.114Z,103145.38
2023-04-17T03:30:04.111Z,103140.25
2023-04-17T03:32:32.250Z,103137.69
2023-04-17T03:35:00.215Z,103133.41
2023-04-17T03:37:28.135Z,103141.13
2023-04-17T03:39:56.128Z,103139.47
2023-04-17T03:42:25.830Z,103143.72
2023-04-17T03:44:53.684Z,103145.41
2023-04-17T03:47:21.671Z,103151.41
2023-04-17T03:49:49.677Z,103153.97
2023-04-17T03:52:17.557Z,103151.38
2023-04-17T03:54:45.730Z,103150.53
2023-04-17T03:57:13.795Z,103155.66
2023-04-17T03:59:43.086Z,103152.25
2023-04-17T04:02:11.230Z,103161.72
2023-04-17T04:04:39.357Z,103159.16
2023-04-17T04:07:07.339Z,103162.66
2023-04-17T04:09:35.198Z,103173.00
2023-04-17T04:12:03.141Z,103165.34
2023-04-17T04:14:31.095Z,103163.59
2023-04-17T04:17:00.354Z,103178.28
2023-04-17T04:19:28.335Z,103182.59
2023-04-17T04:21:56.940Z,103179.16
2023-04-17T04:24:25.608Z,103184.38
2023-04-17T04:26:53.622Z,103178.44
2023-04-17T04:29:25.608Z,103182.13
2023-04-17T04:31:53.631Z,103186.72
2023-04-17T04:34:25.375Z,103192.94
2023-04-17T04:36:53.510Z,103186.97
2023-04-17T04:39:21.673Z,103197.25
2023-04-17T04:41:50.547Z,103189.38
2023-04-17T04:44:19.001Z,103195.19
2023-04-17T04:46:47.069Z,103191.59
2023-04-17T04:49:15.134Z,103199.03
2023-04-17T04:51:44.422Z,103201.47
2023-04-17T04:54:12.339Z,103206.56
2023-04-17T04:56:40.276Z,103203.97
2023-04-17T04:59:08.292Z,103211.72
2023-04-17T05:01:36.268Z,103212.59
2023-04-17T05:04:04.563Z,103218.59
2023-04-17T05:06:32.587Z,103220.38
2023-04-17T05:09:01.820Z,103216.06
2023-04-17T05:11:30.760Z,103211.78
2023-04-17T05:13:58.712Z,103214.41
2023-04-17T05:16:26.698Z,103219.59
2023-04-17T05:18:54.724Z,103226.50
2023-04-17T05:21:22.655Z,103224.78
2023-04-17T05:23:50.499Z,103223.09
2023-04-17T05:26:22.023Z,103223.97
2023-04-17T05:28:49.975Z,103228.28
2023-04-17T05:31:18.139Z,103227.44
2023-04-17T05:33:46.100Z,103223.16
2023-04-17T05:36:13.983Z,103235.19
2023-04-17T05:38:43.070Z,103230.03
2023-04-17T05:41:12.678Z,103231.81
2023-04-17T05:43:42.738Z,103248.97
2023-04-17T05:46:10.622Z,103246.06
2023-04-17T05:48:38.568Z,103246.78
2023-04-17T05:51:06.569Z,103244.00
2023-04-17T05:53:36.069Z,103244.00
2023-04-17T05:56:04.187Z,103247.41
2023-04-17T05:58:32.243Z,103255.06
2023-04-17T06:01:02.423Z,103255.00
2023-04-17T06:03:30.415Z,103254.91
2023-04-17T06:05:58.519Z,103258.28
2023-04-17T06:08:26.603Z,103258.16
2023-04-17T06:10:56.068Z,103248.59
2023-04-17T06:13:24.511Z,103254.50
2023-04-17T06:15:52.508Z,103250.88
2023-04-17T06:18:21.694Z,103255.09
2023-04-17T06:20:49.652Z,103256.75
2023-04-17T06:23:17.560Z,103258.44
2023-04-17T06:25:45.550Z,103254.09
2023-04-17T06:28:13.393Z,103251.97
2023-04-17T06:30:41.434Z,103253.59
2023-04-17T06:33:09.379Z,103253.34
2023-04-17T06:35:38.784Z,103265.41
2023-04-17T06:38:06.626Z,103255.75
2023-04-17T06:40:34.626Z,103251.22
2023-04-17T06:43:02.544Z,103259.78
2023-04-17T06:45:30.537Z,103258.16
2023-04-17T06:47:58.491Z,103253.31
2023-04-17T06:50:26.533Z,103252.44
2023-04-17T06:52:55.805Z,103254.19
2023-04-17T06:55:23.723Z,103262.81
2023-04-17T06:57:51.648Z,103254.09
2023-04-17T07:00:20.495Z,103258.50
2023-04-17T07:02:48.555Z,103258.31
2023-04-17T07:05:16.707Z,103261.84
2023-04-17T07:07:44.860Z,103267.81
2023-04-17T07:10:15.896Z,103258.03
2023-04-17T07:12:43.917Z,103263.88
2023-04-17T07:15:12.341Z,103263.84
2023-04-17T07:17:40.344Z,103259.25
2023-04-17T07:20:09.822Z,103266.97
2023-04-17T07:22:37.729Z,103271.06
2023-04-17T07:25:06.420Z,103264.75
2023-04-17T07:27:36.480Z,103278.66
2023-04-17T07:30:04.900Z,103273.38
2023-04-17T07:32:33.544Z,103277.56
2023-04-17T07:35:01.509Z,103266.88
2023-04-17T07:37:29.489Z,103276.41
2023-04-17T07:39:57.396Z,103272.69
2023-04-17T07:42:25.458Z,103273.53
2023-04-17T07:44:54.760Z,103275.13
2023-04-17T07:47:24.054Z,103281.84
2023-04-17T07:49:51.997Z,103284.34
2023-04-17T07:52:19.858Z,103281.47
2023-04-17T07:54:48.068Z,103284.03
2023-04-17T07:57:18.100Z,103290.13
2023-04-17T07:59:46.758Z,103286.38
2023-04-17T08:02:16.862Z,103289.63
2023-04-17T08:04:45.204Z,103290.44
2023-04-17T08:07:14.496Z,103296.16
2023-04-17T08:09:43.853Z,103299.69
2023-04-17T08:12:12.131Z,103293.94
2023-04-17T08:14:40.829Z,103298.22
2023-04-17T08:17:09.011Z,103301.53
2023-04-17T08:19:38.233Z,103300.56
2023-04-17T08:22:07.312Z,103302.19
2023-04-17T08:24:35.242Z,103302.63
2023-04-17T08:27:07.930Z,103310.59
2023-04-17T08:29:35.832Z,103303.63
2023-04-17T08:32:13.943Z,103311.38
2023-04-17T08:34:47.814Z,103304.22
2023-04-17T08:37:15.690Z,103300.59
2023-04-17T08:39:43.906Z,103305.63
2023-04-17T08:42:16.761Z,103306.75
2023-04-17T08:44:46.566Z,103306.69
2023-04-17T08:47:16.523Z,103313.63
2023-04-17T08:49:47.168Z,103316.09
2023-04-17T08:52:15.061Z,103308.06
2023-04-17T08:54:42.978Z,103306.03
2023-04-17T08:57:10.931Z,103311.19
2023-04-17T08:59:39.411Z,103311.94
2023-04-17T09:02:08.753Z,103310.38
2023-04-17T09:04:41.802Z,103312.06
2023-04-17T09:07:15.685Z,103317.31
2023-04-17T09:09:51.761Z,103316.41
2023-04-17T09:12:20.086Z,103325.69
2023-04-17T09:14:48.256Z,103320.97
2023-04-17T09:17:18.337Z,103318.88
2023-04-17T09:20:07.876Z,103317.78
2023-04-17T09:22:39.305Z,103316.00
2023-04-17T09:25:16.958Z,103318.47
2023-04-17T09:27:45.024Z,103319.50
2023-04-17T09:30:13.828Z,103319.25
2023-04-17T09:32:41.853Z,103326.09
2023-04-17T09:35:09.798Z,103317.69
2023-04-17T09:37:52.252Z,103320.16
2023-04-17T09:40:21.528Z,103317.53
2023-04-17T09:42:57.890Z,103325.34
2023-04-17T09:45:28.247Z,103324.94
2023-04-17T09:47:56.749Z,103321.44
2023-04-17T09:50:25.846Z,103330.19
2023-04-17T09:52:56.416Z,103323.19
2023-04-17T09:55:26.674Z,103327.31
2023-04-17T09:57:56.089Z,103335.13
2023-04-17T10:00:27.080Z,103327.75
2023-04-17T10:02:57.058Z,103334.97
2023-04-17T10:05:27.067Z,103327.59
2023-04-17T10:07:57.250Z,103343.78
2023-04-17T10:10:26.690Z,103328.81
2023-04-17T10:12:57.330Z,103321.16
2023-04-17T10:15:26.456Z,103324.28
2023-04-17T10:17:56.323Z,103323.84
2023-04-17T10:20:44.740Z,103323.06
2023-04-17T10:23:34.136Z,103325.41
2023-04-17T10:26:41.227Z,103330.56
2023-04-17T10:29:09.112Z,103329.75
2023-04-17T10:32:24.439Z,103324.44
2023-04-17T10:34:53.342Z,103323.19
2023-04-17T10:37:23.080Z,103322.50
2023-04-17T10:40:02.861Z,103325.13
2023-04-17T10:42:32.874Z,103331.22
2023-04-17T10:45:04.919Z,103323.53
2023-04-17T10:47:34.458Z,103319.72
2023-04-17T10:50:05.463Z,103332.03
2023-04-17T10:52:40.706Z,103321.94
2023-04-17T10:55:14.438Z,103326.41
2023-04-17T10:58:13.917Z,103323.44
2023-04-17T11:00:52.596Z,103331.25
2023-04-17T11:03:24.313Z,103327.94
2023-04-17T11:05:52.547Z,103326.38
2023-04-17T11:08:21.173Z,103325.84
2023-04-17T11:10:55.037Z,103332.03
2023-04-17T11:13:23.119Z,103329.56
2023-04-17T11:15:52.003Z,103332.16
2023-04-17T11:18:22.699Z,103325.38
2023-04-17T11:20:51.249Z,103322.44
2023-04-17T11:23:19.292Z,103334.13
2023-04-17T11:25:47.361Z,103331.31
2023-04-17T11:28:17.085Z,103337.84
2023-04-17T11:30:45.548Z,103339.25
2023-04-17T11:33:13.526Z,103339.25
2023-04-17T11:35:44.600Z,103344.16
2023-04-17T11:38:17.901Z,103342.25
2023-04-17T11:40:47.991Z,103338.84
2023-04-17T11:43:18.104Z,103340.72
2023-04-17T11:45:48.429Z,103345.75
2023-04-17T11:48:19.574Z,103346.66
2023-04-17T11:50:47.468Z,103345.63
2023-04-17T11:53:17.138Z,103346.50
2023-04-17T11:55:45.851Z,103352.66
2023-04-17T11:58:14.838Z,103344.63
2023-04-17T12:00:44.205Z,103342.16
2023-04-17T12:03:37.816Z,103354.38
2023-04-17T12:06:09.010Z,103350.06
2023-04-17T12:08:45.061Z,103341.97
2023-04-17T12:11:18.097Z,103349.69
2023-04-17T12:13:46.134Z,103344.69
2023-04-17T12:16:15.683Z,103346.00
2023-04-17T12:18:43.786Z,103349.84
2023-04-17T12:21:11.661Z,103351.31
2023-04-17T12:23:39.718Z,103357.91
2023-04-17T12:26:07.690Z,103348.25
2023-04-17T12:28:35.822Z,103359.41
2023-04-17T12:31:04.624Z,103362.94
2023-04-17T12:33:34.052Z,103361.84
2023-04-17T12:36:03.103Z,103362.59
2023-04-17T12:38:31.365Z,103355.56
2023-04-17T12:40:59.444Z,103353.69
2023-04-17T12:43:27.365Z,103354.88
2023-04-17T12:45:55.249Z,103362.09
2023-04-17T12:48:23.207Z,103364.53
2023-04-17T12:50:52.551Z,103360.34
2023-04-17T12:53:20.415Z,103354.47
2023-04-17T12:55:48.453Z,103352.44
2023-04-17T12:58:16.510Z,103360.19
2023-04-17T13:00:44.677Z,103360.91
2023-04-17T13:03:12.796Z,103363.97
2023-04-17T13:05:40.884Z,103365.91
2023-04-17T13:08:14.965Z,103362.44
2023-04-17T13:10:42.923Z,103355.53
2023-04-17T13:13:11.063Z,103367.38
2023-04-17T13:15:38.922Z,103369.28
2023-04-17T13:18:08.144Z,103369.94
2023-04-17T13:20:36.287Z,103372.03
2023-04-17T13:23:04.131Z,103384.88
2023-04-17T13:25:33.966Z,103372.84
2023-04-17T13:28:01.913Z,103374.28
2023-04-17T13:30:29.803Z,103382.25
2023-04-17T13:32:57.683Z,103389.28
2023-04-17T13:35:25.564Z,103380.69
2023-04-17T13:37:54.992Z,103367.25
2023-04-17T13:40:22.965Z,103382.50
2023-04-17T13:42:54.672Z,103367.53
2023-04-17T13:45:24.887Z,103381.38
2023-04-17T13:47:52.822Z,103389.97
2023-04-17T13:50:20.722Z,103386.78
2023-04-17T13:52:48.857Z,103382.56
2023-04-17T13:55:17.379Z,103385.22
2023-04-17T13:57:45.433Z,103386.31
2023-04-17T14:00:16.116Z,103388.25
2023-04-17T14:02:44.087Z,103383.97
2023-04-17T14:05:12.292Z,103390.97
2023-04-17T14:07:40.323Z,103386.91
2023-04-17T14:10:09.960Z,103399.44
2023-04-17T14:12:37.872Z,103393.03
2023-04-17T14:15:07.446Z,103404.47
2023-04-17T14:17:38.275Z,103402.63
2023-04-17T14:20:07.258Z,103400.00
2023-04-17T14:22:35.212Z,103404.13
2023-04-17T14:25:03.157Z,103403.56
2023-04-17T14:27:31.337Z,103396.63
2023-04-17T14:30:01.188Z,103407.84
2023-04-17T14:32:29.577Z,103409.03
2023-04-17T14:34:59.447Z,103407.66
2023-04-17T14:37:27.504Z,103417.34
2023-04-17T14:39:55.613Z,103418.88
2023-04-17T14:42:23.513Z,103414.22
2023-04-17T14:44:51.358Z,103419.81
2023-04-17T14:47:19.640Z,103422.50
2023-04-17T14:49:47.508Z,103424.31
2023-04-17T14:52:17.007Z,103420.03
2023-04-17T14:54:44.927Z,103417.53
2023-04-17T14:57:12.995Z,103418.38
2023-04-17T14:59:41.835Z,103424.06
2023-04-17T15:02:10.601Z,103422.06
2023-04-17T15:04:39.049Z,103425.06
2023-04-17T15:07:07.050Z,103428.66
2023-04-17T15:09:36.271Z,103429.38
2023-04-17T15:12:04.218Z,103433.28
2023-04-17T15:14:32.065Z,103434.47
2023-04-17T15:17:02.346Z,103438.31
2023-04-17T15:19:30.158Z,103435.13
2023-04-17T15:21:58.087Z,103443.81
2023-04-17T15:24:26.058Z,103433.25
2023-04-17T15:26:55.619Z,103438.66
2023-04-17T15:29:23.449Z,103430.88
2023-04-17T15:31:52.641Z,103436.09
2023-04-17T15:34:20.871Z,103433.63
2023-04-17T15:36:48.860Z,103434.56
2023-04-17T15:39:16.809Z,103435.88
2023-04-17T15:41:44.718Z,103429.94
2023-04-17T15:44:13.896Z,103444.78
2023-04-17T15:46:41.927Z,103439.53
2023-04-17T15:49:09.954Z,103448.34
2023-04-17T15:51:39.632Z,103435.19
2023-04-17T15:54:11.844Z,103443.38
2023-04-17T15:56:39.759Z,103442.19
2023-04-17T15:59:07.616Z,103446.47
2023-04-17T16:01:36.939Z,103445.91
2023-04-17T16:04:05.607Z,103451.94
2023-04-17T16:06:34.106Z,103448.47
2023-04-17T16:09:03.528Z,103448.75
2023-04-17T16:11:31.497Z,103460.22
2023-04-17T16:13:59.410Z,103454.22
2023-04-17T16:16:29.389Z,103462.13
2023-04-17T16:18:58.963Z,103462.22
2023-04-17T16:21:27.382Z,103466.94
2023-04-17T16:23:57.353Z,103463.53
2023-04-17T16:26:25.483Z,103468.19
2023-04-17T16:28:53.365Z,103469.94
2023-04-17T16:31:22.702Z,103478.88
2023-04-17T16:33:50.864Z,103474.72
2023-04-17T16:36:20.290Z,103481.78
2023-04-17T16:38:48.126Z,103483.78
2023-04-17T16:41:16.237Z,103483.00
2023-04-17T16:43:44.154Z,103477.09
2023-04-17T16:46:24.098Z,103477.25
2023-04-17T16:49:00.366Z,103484.34
2023-04-17T16:51:29.842Z,103481.81
2023-04-17T16:53:57.793Z,103485.56
2023-04-17T16:56:25.828Z,103482.19
2023-04-17T16:58:53.733Z,103484.84
2023-04-17T17:01:21.718Z,103479.69
2023-04-17T17:03:50.461Z,103488.50
2023-04-17T17:06:18.406Z,103495.00
2023-04-17T17:08:48.021Z,103486.56
2023-04-17T17:11:16.073Z,103499.84
2023-04-17T17:13:46.697Z,103492.09
2023-04-17T17:16:15.120Z,103497.50
2023-04-17T17:18:42.976Z,103497.63
2023-04-17T17:21:11.032Z,103504.13
2023-04-17T17:23:39.024Z,103510.47
2023-04-17T17:26:08.469Z,103511.69
2023-04-17T17:28:36.577Z,103513.84
2023-04-17T17:31:07.377Z,103510.53
2023-04-17T17:33:36.133Z,103524.78
2023-04-17T17:36:04.482Z,103528.69
2023-04-17T17:38:32.771Z,103527.88
2023-04-17T17:41:00.978Z,103521.09
2023-04-17T17:43:30.311Z,103522.25
2023-04-17T17:45:58.260Z,103519.78
2023-04-17T17:48:26.377Z,103524.28
2023-04-17T17:50:55.525Z,103521.78
2023-04-17T17:53:26.362Z,103518.47
2023-04-17T17:55:56.621Z,103516.88
2023-04-17T17:58:25.433Z,103521.47
2023-04-17T18:00:54.670Z,103519.00
2023-04-17T18:03:22.688Z,103527.03
2023-04-17T18:05:52.704Z,103531.56
2023-04-17T18:08:20.791Z,103532.56
2023-04-17T18:10:48.667Z,103540.56
2023-04-17T18:13:16.516Z,103543.41
2023-04-17T18:15:44.429Z,103550.53
2023-04-17T18:18:13.793Z,103550.81
2023-04-17T18:20:41.769Z,103556.16
2023-04-17T18:23:09.683Z,103567.63
2023-04-17T18:25:39.082Z,103562.69
2023-04-17T18:28:07.627Z,103559.31
2023-04-17T18:30:35.614Z,103563.69
2023-04-17T18:33:03.582Z,103560.41
2023-04-17T18:35:33.047Z,103563.97
2023-04-17T18:38:00.936Z,103562.41
2023-04-17T18:40:28.907Z,103555.66
2023-04-17T18:42:56.869Z,103568.84
2023-04-17T18:45:24.797Z,103568.13
2023-04-17T18:47:52.804Z,103572.56
2023-04-17T18:50:20.933Z,103571.88
2023-04-17T18:52:51.286Z,103575.50
2023-04-17T18:55:19.477Z,103570.34
2023-04-17T18:57:47.419Z,103575.59
2023-04-17T19:00:15.849Z,103579.97
2023-04-17T19:02:43.946Z,103580.88
2023-04-17T19:05:11.942Z,103587.13
2023-04-17T19:07:39.843Z,103587.25
2023-04-17T19:10:10.348Z,103593.47
2023-04-17T19:12:38.466Z,103584.00
2023-04-17T19:15:07.563Z,103584.94
2023-04-17T19:17:35.576Z,103587.59
2023-04-17T19:20:03.689Z,103585.06
2023-04-17T19:22:31.585Z,103586.06
2023-04-17T19:25:00.679Z,103585.25
2023-04-17T19:27:29.966Z,103587.94
2023-04-17T19:29:58.332Z,103591.47
2023-04-17T19:32:26.280Z,103592.38
2023-04-17T19:34:54.204Z,103599.41
2023-04-17T19:37:22.053Z,103592.56
2023-04-17T19:39:50.703Z,103593.47
2023-04-17T19:42:19.498Z,103596.13
2023-04-17T19:44:48.824Z,103603.16
2023-04-17T19:47:16.772Z,103604.97
2023-04-17T19:49:44.874Z,103602.38
2023-04-17T19:52:12.988Z,103603.28
2023-04-17T19:54:42.840Z,103602.47
2023-04-17T19:57:10.825Z,103599.94
2023-04-17T19:59:38.696Z,103605.25
2023-04-17T20:02:08.169Z,103604.38
2023-04-17T20:04:36.122Z,103603.56
2023-04-17T20:07:04.061Z,103608.78
2023-04-17T20:09:32.504Z,103616.69
2023-04-17T20:12:00.691Z,103617.59
2023-04-17T20:14:28.671Z,103617.63
2023-04-17T20:16:56.655Z,103617.66
2023-04-17T20:19:26.249Z,103614.19
2023-04-17T20:21:54.200Z,103616.84
2023-04-17T20:24:22.055Z,103619.50
2023-04-17T20:26:49.920Z,103614.31
2023-04-17T20:29:17.833Z,103623.06
2023-04-17T20:31:45.934Z,103629.19
2023-04-17T20:34:13.876Z,103621.41
2023-04-17T20:36:43.258Z,103624.88
2023-04-17T20:39:12.757Z,103622.31
2023-04-17T20:41:41.760Z,103626.72
2023-04-17T20:44:10.036Z,103635.38
2023-04-17T20:46:38.047Z,103628.47
2023-04-17T20:49:05.910Z,103634.59
2023-04-17T20:51:33.917Z,103638.06
2023-04-17T20:54:03.205Z,103635.50
2023-04-17T20:56:31.047Z,103637.25
2023-04-17T20:58:58.898Z,103645.94
2023-04-17T21:01:26.785Z,103646.78
2023-04-17T21:03:54.827Z,103645.09
2023-04-17T21:06:23.079Z,103645.97
2023-04-17T21:08:51.024Z,103640.78
2023-04-17T21:11:21.489Z,103641.63
2023-04-17T21:13:49.477Z,103636.44
2023-04-17T21:16:17.438Z,103639.91
2023-04-17T21:18:46.078Z,103637.31
2023-04-17T21:21:13.965Z,103652.91
2023-04-17T21:23:41.774Z,103651.22
2023-04-17T21:26:09.796Z,103652.09
2023-04-17T21:28:39.042Z,103653.84
2023-04-17T21:31:09.880Z,103652.97
2023-04-17T21:33:37.871Z,103657.31
2023-04-17T21:36:05.973Z,103655.59
2023-04-17T21:38:33.942Z,103659.94
2023-04-17T21:41:01.844Z,103656.47
2023-04-17T21:43:31.028Z,103652.16
2023-04-17T21:46:00.450Z,103657.34
2023-04-17T21:48:28.576Z,103652.19
2023-04-17T21:51:01.770Z,103656.47
2023-04-17T21:53:29.850Z,103654.75
2023-04-17T21:55:57.701Z,103657.34
2023-04-17T21:58:25.644Z,103666.84
2023-04-17T22:00:53.657Z,103668.59
2023-04-17T22:03:23.780Z,103667.72
2023-04-17T22:05:53.760Z,103665.13
2023-04-17T22:08:21.611Z,103674.63
2023-04-17T22:10:49.488Z,103670.28
2023-04-17T22:13:17.309Z,103666.84
2023-04-17T22:15:46.052Z,103666.84
2023-04-17T22:18:13.929Z,103671.16
2023-04-17T22:20:43.284Z,103674.63
2023-04-17T22:23:11.097Z,103668.56
2023-04-17T22:25:38.899Z,103675.44
2023-04-17T22:28:07.392Z,103670.25
2023-04-17T22:30:35.442Z,103674.59
2023-04-17T22:33:03.455Z,103670.25
2023-04-17T22:35:31.410Z,103667.66
2023-04-17T22:38:00.740Z,103672.81
2023-04-17T22:40:29.948Z,103668.50
2023-04-17T22:42:58.030Z,103670.22
2023-04-17T22:45:25.945Z,103673.69
2023-04-17T22:47:53.913Z,103672.78
2023-04-17T22:50:21.857Z,103678.00
2023-04-17T22:52:49.781Z,103678.81
2023-04-17T22:55:19.419Z,103678.78
2023-04-17T22:57:47.261Z,103679.69
2023-04-17T23:00:16.067Z,103675.38
2023-04-17T23:02:43.988Z,103680.53
2023-04-17T23:05:11.958Z,103673.59
2023-04-17T23:07:40.123Z,103686.56
2023-04-17T23:10:08.777Z,103677.94
2023-04-17T23:12:38.046Z,103672.75
2023-04-17T23:15:08.283Z,103675.31
2023-04-17T23:17:36.243Z,103678.75
2023-04-17T23:20:04.790Z,103680.47
2023-04-17T23:22:32.666Z,103681.31
2023-04-17T23:25:00.584Z,103683.06
2023-04-17T23:27:28.464Z,103676.13
2023-04-17T23:29:58.879Z,103683.06
2023-04-17T23:32:27.008Z,103688.22
2023-04-17T23:34:55.068Z,103685.63
2023-04-17T23:37:22.988Z,103694.25
2023-04-17T23:39:50.950Z,103693.41
2023-04-17T23:42:18.894Z,103698.56
2023-04-17T23:44:46.765Z,103697.66
2023-04-17T23:47:16.164Z,103704.53
2023-04-17T23:49:46.392Z,103700.25
2023-04-17T23:52:14.097Z,103702.75
2023-04-17T23:54:42.289Z,103704.47
2023-04-17T23:57:10.240Z,103705.31
2023-04-17T23:59:38.067Z,103704.47
